<?xml version="1.0" encoding="UTF-8" standalone="no" ?>
<gpx xmlns="http://www.topografix.com/GPX/1/1" xmlns:xsi="http://www.w3.org/2001/XMLSchema-instance" xsi:schemaLocation="http://www.topografix.com/GPX/1/1 http://www.topografix.com/GPX/1/1/gpx.xsd" version="1.1" creator="VisuGPX - https://www.visugpx.com">
  <metadata>
    <name>Fouesnant_BegMeilMousterlin_20.5km</name>
    <desc><![CDATA[gnerando idor: 8172524]]></desc>
  </metadata>
  <trk>
    <name><![CDATA[Fouesnant_BegMeilMousterlin_20.5km-8172524]]></name>
    <extensions>
      <line xmlns="http://www.topografix.com/GPX/gpx_style/0/2">
        <color>0000FF</color>
        <width>4</width>
      </line>
    </extensions>
    <trkseg>
      <trkpt lat="47.85469" lon="-3.98031">
        <ele>9</ele>
        <time>2023-11-01T17:28:26Z</time>
      </trkpt>
      <trkpt lat="47.85412" lon="-3.98211">
        <ele>8</ele>
        <time>2023-11-01T17:31:24Z</time>
      </trkpt>
      <trkpt lat="47.85429" lon="-3.98477">
        <ele>8</ele>
        <time>2023-11-01T17:35:23Z</time>
      </trkpt>
      <trkpt lat="47.85351" lon="-3.98722">
        <ele>4</ele>
        <time>2023-11-01T17:39:26Z</time>
      </trkpt>
      <trkpt lat="47.85435" lon="-3.98859">
        <ele>9</ele>
        <time>2023-11-01T17:42:13Z</time>
      </trkpt>
      <trkpt lat="47.85389" lon="-3.99344">
        <ele>3</ele>
        <time>2023-11-01T17:49:31Z</time>
      </trkpt>
      <trkpt lat="47.85432" lon="-3.99366">
        <ele>4</ele>
        <time>2023-11-01T17:50:32Z</time>
      </trkpt>
      <trkpt lat="47.85216" lon="-4.00121">
        <ele>4</ele>
        <time>2023-11-01T18:02:47Z</time>
      </trkpt>
      <trkpt lat="47.85167" lon="-4.01138">
        <ele>4</ele>
        <time>2023-11-01T18:18:00Z</time>
      </trkpt>
      <trkpt lat="47.85069" lon="-4.02219">
        <ele>3</ele>
        <time>2023-11-01T18:34:17Z</time>
      </trkpt>
      <trkpt lat="47.84986" lon="-4.02962">
        <ele>4</ele>
        <time>2023-11-01T18:45:31Z</time>
      </trkpt>
      <trkpt lat="47.84778" lon="-4.03601">
        <ele>4</ele>
        <time>2023-11-01T18:56:07Z</time>
      </trkpt>
      <trkpt lat="47.8445" lon="-4.04022">
        <ele>1</ele>
        <time>2023-11-01T19:05:45Z</time>
      </trkpt>
      <trkpt lat="47.8451" lon="-4.04151">
        <ele>1</ele>
        <time>2023-11-01T19:08:05Z</time>
      </trkpt>
      <trkpt lat="47.84631" lon="-4.04133">
        <ele>4</ele>
        <time>2023-11-01T19:10:48Z</time>
      </trkpt>
      <trkpt lat="47.84954" lon="-4.04515">
        <ele>5</ele>
        <time>2023-11-01T19:19:58Z</time>
      </trkpt>
      <trkpt lat="47.85435" lon="-4.05266">
        <ele>5</ele>
        <time>2023-11-01T19:35:28Z</time>
      </trkpt>
      <trkpt lat="47.85484" lon="-4.05168">
        <ele>3</ele>
        <time>2023-11-01T19:37:17Z</time>
      </trkpt>
      <trkpt lat="47.8557" lon="-4.05138">
        <ele>4</ele>
        <time>2023-11-01T19:39:15Z</time>
      </trkpt>
      <trkpt lat="47.85703" lon="-4.05039">
        <ele>7</ele>
        <time>2023-11-01T19:42:33Z</time>
      </trkpt>
      <trkpt lat="47.85809" lon="-4.05133">
        <ele>9</ele>
        <time>2023-11-01T19:45:18Z</time>
      </trkpt>
      <trkpt lat="47.86005" lon="-4.05163">
        <ele>8</ele>
        <time>2023-11-01T19:49:41Z</time>
      </trkpt>
      <trkpt lat="47.86065" lon="-4.05245">
        <ele>9</ele>
        <time>2023-11-01T19:51:30Z</time>
      </trkpt>
      <trkpt lat="47.86037" lon="-4.05327">
        <ele>9</ele>
        <time>2023-11-01T19:52:52Z</time>
      </trkpt>
      <trkpt lat="47.86114" lon="-4.05447">
        <ele>7</ele>
        <time>2023-11-01T19:55:21Z</time>
      </trkpt>
      <trkpt lat="47.86057" lon="-4.0558">
        <ele>6</ele>
        <time>2023-11-01T19:57:42Z</time>
      </trkpt>
      <trkpt lat="47.86224" lon="-4.0564">
        <ele>6</ele>
        <time>2023-11-01T20:01:31Z</time>
      </trkpt>
      <trkpt lat="47.8631" lon="-4.05811">
        <ele>8</ele>
        <time>2023-11-01T20:04:42Z</time>
      </trkpt>
      <trkpt lat="47.86376" lon="-4.05786">
        <ele>8</ele>
        <time>2023-11-01T20:06:13Z</time>
      </trkpt>
      <trkpt lat="47.86408" lon="-4.05936">
        <ele>10</ele>
        <time>2023-11-01T20:08:34Z</time>
      </trkpt>
      <trkpt lat="47.86068" lon="-4.06223">
        <ele>3</ele>
        <time>2023-11-01T20:17:16Z</time>
      </trkpt>
      <trkpt lat="47.861" lon="-4.06318">
        <ele>3</ele>
        <time>2023-11-01T20:18:51Z</time>
      </trkpt>
      <trkpt lat="47.86224" lon="-4.06326">
        <ele>3</ele>
        <time>2023-11-01T20:21:36Z</time>
      </trkpt>
      <trkpt lat="47.86224" lon="-4.0646">
        <ele>2</ele>
        <time>2023-11-01T20:23:36Z</time>
      </trkpt>
      <trkpt lat="47.86399" lon="-4.06399">
        <ele>5</ele>
        <time>2023-11-01T20:27:36Z</time>
      </trkpt>
      <trkpt lat="47.86581" lon="-4.06176">
        <ele>9</ele>
        <time>2023-11-01T20:32:51Z</time>
      </trkpt>
      <trkpt lat="47.86725" lon="-4.06219">
        <ele>9</ele>
        <time>2023-11-01T20:36:07Z</time>
      </trkpt>
      <trkpt lat="47.86748" lon="-4.06395">
        <ele>6</ele>
        <time>2023-11-01T20:38:47Z</time>
      </trkpt>
      <trkpt lat="47.86515" lon="-4.06434">
        <ele>6</ele>
        <time>2023-11-01T20:44:00Z</time>
      </trkpt>
      <trkpt lat="47.86374" lon="-4.06597">
        <ele>5</ele>
        <time>2023-11-01T20:47:58Z</time>
      </trkpt>
      <trkpt lat="47.8631" lon="-4.06696">
        <ele>3</ele>
        <time>2023-11-01T20:50:01Z</time>
      </trkpt>
      <trkpt lat="47.86365" lon="-4.06777">
        <ele>4</ele>
        <time>2023-11-01T20:51:44Z</time>
      </trkpt>
      <trkpt lat="47.86503" lon="-4.06786">
        <ele>8</ele>
        <time>2023-11-01T20:54:49Z</time>
      </trkpt>
      <trkpt lat="47.86647" lon="-4.0682">
        <ele>9</ele>
        <time>2023-11-01T20:58:03Z</time>
      </trkpt>
      <trkpt lat="47.86817" lon="-4.06605">
        <ele>10</ele>
        <time>2023-11-01T21:03:01Z</time>
      </trkpt>
      <trkpt lat="47.87039" lon="-4.0646">
        <ele>13</ele>
        <time>2023-11-01T21:08:24Z</time>
      </trkpt>
      <trkpt lat="47.8707" lon="-4.06288">
        <ele>11</ele>
        <time>2023-11-01T21:11:04Z</time>
      </trkpt>
      <trkpt lat="47.87093" lon="-4.05919">
        <ele>14</ele>
        <time>2023-11-01T21:16:35Z</time>
      </trkpt>
      <trkpt lat="47.8703" lon="-4.05541">
        <ele>15</ele>
        <time>2023-11-01T21:22:24Z</time>
      </trkpt>
      <trkpt lat="47.87096" lon="-4.05378">
        <ele>17</ele>
        <time>2023-11-01T21:25:15Z</time>
      </trkpt>
      <trkpt lat="47.8722" lon="-4.05399">
        <ele>21</ele>
        <time>2023-11-01T21:28:01Z</time>
      </trkpt>
      <trkpt lat="47.87062" lon="-4.05013">
        <ele>17</ele>
        <time>2023-11-01T21:34:46Z</time>
      </trkpt>
      <trkpt lat="47.87136" lon="-4.04996">
        <ele>18</ele>
        <time>2023-11-01T21:36:26Z</time>
      </trkpt>
      <trkpt lat="47.87111" lon="-4.04726">
        <ele>17</ele>
        <time>2023-11-01T21:40:30Z</time>
      </trkpt>
      <trkpt lat="47.87013" lon="-4.04451">
        <ele>12</ele>
        <time>2023-11-01T21:45:09Z</time>
      </trkpt>
      <trkpt lat="47.8699" lon="-4.04284">
        <ele>13</ele>
        <time>2023-11-01T21:47:41Z</time>
      </trkpt>
      <trkpt lat="47.87082" lon="-4.04125">
        <ele>14</ele>
        <time>2023-11-01T21:50:49Z</time>
      </trkpt>
      <trkpt lat="47.87044" lon="-4.03923">
        <ele>16</ele>
        <time>2023-11-01T21:53:57Z</time>
      </trkpt>
      <trkpt lat="47.87145" lon="-4.03344">
        <ele>19</ele>
        <time>2023-11-01T22:02:52Z</time>
      </trkpt>
      <trkpt lat="47.87004" lon="-4.03305">
        <ele>17</ele>
        <time>2023-11-01T22:06:04Z</time>
      </trkpt>
      <trkpt lat="47.86774" lon="-4.03434">
        <ele>15</ele>
        <time>2023-11-01T22:11:32Z</time>
      </trkpt>
      <trkpt lat="47.86477" lon="-4.03258">
        <ele>12</ele>
        <time>2023-11-01T22:18:38Z</time>
      </trkpt>
      <trkpt lat="47.86405" lon="-4.03468">
        <ele>11</ele>
        <time>2023-11-01T22:22:09Z</time>
      </trkpt>
      <trkpt lat="47.85841" lon="-4.03395">
        <ele>4</ele>
        <time>2023-11-01T22:34:45Z</time>
      </trkpt>
      <trkpt lat="47.85798" lon="-4.0331">
        <ele>4</ele>
        <time>2023-11-01T22:36:20Z</time>
      </trkpt>
      <trkpt lat="47.85671" lon="-4.03271">
        <ele>2</ele>
        <time>2023-11-01T22:39:13Z</time>
      </trkpt>
      <trkpt lat="47.85596" lon="-4.03082">
        <ele>3</ele>
        <time>2023-11-01T22:42:30Z</time>
      </trkpt>
      <trkpt lat="47.85628" lon="-4.02958">
        <ele>3</ele>
        <time>2023-11-01T22:44:29Z</time>
      </trkpt>
      <trkpt lat="47.85792" lon="-4.02885">
        <ele>4</ele>
        <time>2023-11-01T22:48:17Z</time>
      </trkpt>
      <trkpt lat="47.85801" lon="-4.0279">
        <ele>4</ele>
        <time>2023-11-01T22:49:43Z</time>
      </trkpt>
      <trkpt lat="47.85809" lon="-4.02571">
        <ele>9</ele>
        <time>2023-11-01T22:52:59Z</time>
      </trkpt>
      <trkpt lat="47.85708" lon="-4.02503">
        <ele>8</ele>
        <time>2023-11-01T22:55:27Z</time>
      </trkpt>
      <trkpt lat="47.8574" lon="-4.02322">
        <ele>8</ele>
        <time>2023-11-01T22:58:15Z</time>
      </trkpt>
      <trkpt lat="47.85659" lon="-4.02224">
        <ele>6</ele>
        <time>2023-11-01T23:00:34Z</time>
      </trkpt>
      <trkpt lat="47.85605" lon="-4.02262">
        <ele>5</ele>
        <time>2023-11-01T23:01:54Z</time>
      </trkpt>
      <trkpt lat="47.85461" lon="-4.02001">
        <ele>3</ele>
        <time>2023-11-01T23:06:56Z</time>
      </trkpt>
      <trkpt lat="47.85363" lon="-4.01941">
        <ele>2</ele>
        <time>2023-11-01T23:09:18Z</time>
      </trkpt>
      <trkpt lat="47.85501" lon="-4.01722">
        <ele>4</ele>
        <time>2023-11-01T23:13:47Z</time>
      </trkpt>
      <trkpt lat="47.85622" lon="-4.01713">
        <ele>5</ele>
        <time>2023-11-01T23:16:29Z</time>
      </trkpt>
      <trkpt lat="47.85694" lon="-4.01593">
        <ele>3</ele>
        <time>2023-11-01T23:18:53Z</time>
      </trkpt>
      <trkpt lat="47.85536" lon="-4.014">
        <ele>4</ele>
        <time>2023-11-01T23:23:25Z</time>
      </trkpt>
      <trkpt lat="47.85435" lon="-4.01241">
        <ele>4</ele>
        <time>2023-11-01T23:26:41Z</time>
      </trkpt>
      <trkpt lat="47.85354" lon="-4.00902">
        <ele>3</ele>
        <time>2023-11-01T23:32:04Z</time>
      </trkpt>
      <trkpt lat="47.85325" lon="-4.00511">
        <ele>5</ele>
        <time>2023-11-01T23:37:56Z</time>
      </trkpt>
      <trkpt lat="47.85346" lon="-4.00305">
        <ele>5</ele>
        <time>2023-11-01T23:41:02Z</time>
      </trkpt>
      <trkpt lat="47.85392" lon="-3.99954">
        <ele>5</ele>
        <time>2023-11-01T23:46:23Z</time>
      </trkpt>
      <trkpt lat="47.85478" lon="-3.99928">
        <ele>6</ele>
        <time>2023-11-01T23:48:20Z</time>
      </trkpt>
      <trkpt lat="47.85464" lon="-3.9973">
        <ele>5</ele>
        <time>2023-11-01T23:51:18Z</time>
      </trkpt>
      <trkpt lat="47.85527" lon="-3.9949">
        <ele>5</ele>
        <time>2023-11-01T23:55:09Z</time>
      </trkpt>
      <trkpt lat="47.85389" lon="-3.99301">
        <ele>4</ele>
        <time>2023-11-01T23:59:19Z</time>
      </trkpt>
      <trkpt lat="47.85412" lon="-3.98898">
        <ele>6</ele>
        <time>2023-11-02T00:05:21Z</time>
      </trkpt>
      <trkpt lat="47.85348" lon="-3.9867">
        <ele>4</ele>
        <time>2023-11-02T00:09:02Z</time>
      </trkpt>
      <trkpt lat="47.85432" lon="-3.98413">
        <ele>10</ele>
        <time>2023-11-02T00:13:18Z</time>
      </trkpt>
      <trkpt lat="47.85467" lon="-3.9804">
        <ele>9</ele>
        <time>2023-11-02T00:18:56Z</time>
      </trkpt>
    </trkseg>
  </trk>
</gpx>